Time;durP1;ratioP1;P1;durP2;ratioP2;P2;SDS_P1;SDS_P2;PMS_P1;PMS_P2;Temp;Humidity;BMP_temperature;BMP_pressure;BME280_temperature;BME280_humidity;BME280_pressure;Samples;Min_cycle;Max_cycle;Signal;HPM_P1;HPM_P2
2023/12/03 00:02:06;;;;;;;;;;;;;;;4.26;68.37;100444.56;7362726;19;19926;-62
2023/12/03 00:04:31;;;;;;;;;;;;;;;4.30;68.24;100443.66;7362686;19;19922;-63
2023/12/03 00:06:57;;;;;;;;;;;;;;;4.33;68.16;100451.41;7360630;19;19935;-62
2023/12/03 00:09:22;;;;;;;;;;;;;;;4.36;68.39;100446.25;7367504;19;19919;-62
2023/12/03 00:11:47;;;;;;;;;;;;;;;4.39;68.19;100445.38;7364990;19;19918;-62
2023/12/03 00:14:13;;;;;;;;;;;;;;;4.41;68.27;100449.69;7364501;19;20717;-63
2023/12/03 00:16:38;;;;;;;;;;;;;;;4.43;68.04;100445.38;7365305;19;19930;-62
2023/12/03 00:19:03;;;;;;;;;;;;;;;4.46;68.29;100446.22;7364230;19;19923;-63
2023/12/03 00:21:28;;;;;;;;;;;;;;;4.46;68.29;100441.94;7362464;19;20403;-62
2023/12/03 00:23:54;;;;;;;;;;;;;;;4.49;68.20;100446.22;7367874;19;20615;-63
2023/12/03 00:26:19;;;;;;;;;;;;;;;4.50;68.13;100437.59;7357195;19;20476;-62
2023/12/03 00:28:44;;;;;;;;;;;;;;;4.50;68.39;100448.78;7361782;19;20020;-62
2023/12/03 00:31:09;;;;;;;;;;;;;;;4.51;68.03;100444.47;7365401;19;19945;-62
2023/12/03 00:33:35;;;;;;;;;;;;;;;4.52;68.24;100441.06;7362365;19;19918;-62
2023/12/03 00:36:00;;;;;;;;;;;;;;;4.52;68.17;100446.22;7364827;19;19921;-62
2023/12/03 00:38:25;;;;;;;;;;;;;;;4.53;68.19;100437.59;7365013;19;20287;-62
2023/12/03 00:40:51;;;;;;;;;;;;;;;4.54;68.37;100436.72;7365201;19;19926;-62
2023/12/03 00:43:16;;;;;;;;;;;;;;;4.54;68.37;100431.56;7366862;19;20052;-62
2023/12/03 00:45:41;;;;;;;;;;;;;;;4.55;68.33;100425.50;7361416;19;19930;-62
2023/12/03 00:48:06;;;;;;;;;;;;;;;4.55;68.18;100425.50;7360623;19;20441;-61
2023/12/03 00:50:32;;;;;;;;;;;;;;;4.56;68.06;100422.94;7363626;19;19932;-62
2023/12/03 00:52:57;;;;;;;;;;;;;;;4.58;68.18;100425.53;7359790;19;19966;-62
2023/12/03 00:55:22;;;;;;;;;;;;;;;4.57;68.24;100418.63;7365353;19;20381;-63
2023/12/03 00:57:47;;;;;;;;;;;;;;;4.58;68.39;100413.44;7360931;19;19939;-62
2023/12/03 01:00:13;;;;;;;;;;;;;;;4.59;68.40;100412.56;7363447;19;19915;-62
2023/12/03 01:02:38;;;;;;;;;;;;;;;4.60;68.41;100408.25;7364784;19;20244;-62
2023/12/03 01:05:04;;;;;;;;;;;;;;;4.61;68.08;100409.97;7361803;19;19922;-62
2023/12/03 01:07:29;;;;;;;;;;;;;;;4.62;68.43;100412.59;7364763;19;19911;-62
2023/12/03 01:09:54;;;;;;;;;;;;;;;4.62;68.24;100416.91;7362773;19;19926;-62
2023/12/03 01:12:19;;;;;;;;;;;;;;;4.61;68.04;100409.97;7368344;19;19922;-62
2023/12/03 01:14:45;;;;;;;;;;;;;;;4.62;68.43;100403.97;7368672;19;20653;-62
2023/12/03 01:17:10;;;;;;;;;;;;;;;4.62;68.39;100402.25;7362699;19;19925;-62
2023/12/03 01:19:35;;;;;;;;;;;;;;;4.61;68.42;100400.53;7363205;19;20629;-62
2023/12/03 01:22:01;;;;;;;;;;;;;;;4.58;68.49;100394.50;7360531;19;19915;-62
2023/12/03 01:24:26;;;;;;;;;;;;;;;4.62;68.64;100398.78;7362506;19;19919;-62
2023/12/03 01:26:51;;;;;;;;;;;;;;;4.63;68.30;100400.50;7363181;19;19911;-62
2023/12/03 01:29:16;;;;;;;;;;;;;;;4.63;68.28;100397.91;7361235;19;19936;-62
2023/12/03 01:31:42;;;;;;;;;;;;;;;4.63;68.30;100403.09;7368503;19;19938;-62
2023/12/03 01:34:07;;;;;;;;;;;;;;;4.62;68.43;100401.38;7363789;19;19925;-61
2023/12/03 01:36:32;;;;;;;;;;;;;;;4.62;68.36;100401.38;7365904;19;19927;-63
2023/12/03 01:38:57;;;;;;;;;;;;;;;4.60;68.28;100403.94;7371817;19;20380;-64
2023/12/03 01:41:23;;;;;;;;;;;;;;;4.60;68.27;100400.50;7361345;19;19922;-62
2023/12/03 01:43:51;;;;;;;;;;;;;;;4.58;68.40;100404.84;7360579;19;20244;-62
2023/12/03 01:46:17;;;;;;;;;;;;;;;4.58;68.35;100402.25;7364687;19;20780;-62
2023/12/03 01:48:45;;;;;;;;;;;;;;;4.56;68.41;100401.38;7365216;19;19950;-62
2023/12/03 01:51:11;;;;;;;;;;;;;;;4.54;68.37;100398.81;7364185;19;19925;-62
2023/12/03 01:53:41;;;;;;;;;;;;;;;4.54;68.45;100409.16;7366782;19;19994;-62
2023/12/03 01:56:06;;;;;;;;;;;;;;;4.54;68.39;100408.28;7359478;19;19918;-62
2023/12/03 01:58:32;;;;;;;;;;;;;;;4.52;68.29;100415.19;7366505;19;19939;-62
2023/12/03 02:00:57;;;;;;;;;;;;;;;4.50;68.14;100417.78;7358554;19;20256;-62
2023/12/03 02:03:23;;;;;;;;;;;;;;;4.49;68.24;100407.44;7360672;19;20733;-62
2023/12/03 02:05:54;;;;;;;;;;;;;;;4.47;68.37;100404.00;7359606;19;20991;-62
2023/12/03 02:08:19;;;;;;;;;;;;;;;4.46;68.36;100408.31;7364596;19;19922;-62
2023/12/03 02:10:44;;;;;;;;;;;;;;;4.46;68.58;100412.59;7349910;19;19914;-62
2023/12/03 02:13:10;;;;;;;;;;;;;;;4.45;68.72;100413.47;7368319;19;19922;-63
2023/12/03 02:15:35;;;;;;;;;;;;;;;4.44;68.74;100412.63;7368711;19;20344;-62
2023/12/03 02:18:00;;;;;;;;;;;;;;;4.43;68.69;100416.06;7359133;19;19942;-62
2023/12/03 02:20:26;;;;;;;;;;;;;;;4.42;68.36;100415.22;7359681;19;19934;-62
2023/12/03 02:23:01;;;;;;;;;;;;;;;4.42;68.69;100415.22;7356631;19;19937;-61
2023/12/03 02:25:26;;;;;;;;;;;;;;;4.42;68.63;100415.22;7360185;19;19927;-61
2023/12/03 02:27:51;;;;;;;;;;;;;;;4.40;68.71;100406.59;7364226;19;20481;-61
2023/12/03 02:30:17;;;;;;;;;;;;;;;4.39;68.72;100412.63;7357572;19;20506;-62
2023/12/03 02:32:42;;;;;;;;;;;;;;;4.39;68.67;100414.34;7365439;19;19922;-62
2023/12/03 02:35:07;;;;;;;;;;;;;;;4.37;68.65;100411.78;7363136;19;20030;-62
2023/12/03 02:37:32;;;;;;;;;;;;;;;4.36;68.61;100420.41;7358349;19;20916;-62
2023/12/03 02:39:58;;;;;;;;;;;;;;;4.35;68.87;100417.81;7360707;19;20647;-63
2023/12/03 02:42:23;;;;;;;;;;;;;;;4.35;68.84;100418.66;7362726;19;19934;-62
2023/12/03 02:44:48;;;;;;;;;;;;;;;4.34;68.81;100416.09;7360982;19;19935;-62
2023/12/03 02:47:13;;;;;;;;;;;;;;;4.33;68.49;100410.06;7362209;19;19921;-62
2023/12/03 02:49:39;;;;;;;;;;;;;;;4.33;68.91;100410.06;7363523;19;20748;-62
2023/12/03 02:52:09;;;;;;;;;;;;;;;4.33;68.84;100410.06;7362026;19;19927;-62
2023/12/03 02:54:34;;;;;;;;;;;;;;;4.32;68.71;100408.34;7364219;19;20885;-62
2023/12/03 02:57:00;;;;;;;;;;;;;;;4.31;68.58;100408.31;7359499;19;19929;-62
2023/12/03 02:59:25;;;;;;;;;;;;;;;4.29;68.40;100403.16;7357714;19;20434;-62
2023/12/03 03:01:50;;;;;;;;;;;;;;;4.28;68.35;100400.59;7361835;19;20477;-63
2023/12/03 03:04:16;;;;;;;;;;;;;;;4.26;68.53;100392.84;7358209;19;19952;-62
2023/12/03 03:06:41;;;;;;;;;;;;;;;4.26;68.84;100399.72;7360807;19;19918;-62
2023/12/03 03:09:06;;;;;;;;;;;;;;;4.25;68.55;100404.03;7366343;19;19910;-62
2023/12/03 03:11:32;;;;;;;;;;;;;;;4.24;68.69;100401.47;7353923;19;19942;-62
2023/12/03 03:13:57;;;;;;;;;;;;;;;4.22;68.77;100406.63;7369624;19;19958;-62
2023/12/03 03:16:25;;;;;;;;;;;;;;;4.23;68.67;100403.19;7368053;19;19926;-62
2023/12/03 03:18:50;;;;;;;;;;;;;;;4.23;68.86;100398.03;7366635;19;20458;-62
2023/12/03 03:21:15;;;;;;;;;;;;;;;4.22;68.78;100395.44;7365133;19;19941;-62
2023/12/03 03:23:41;;;;;;;;;;;;;;;4.21;68.93;100392.00;7369084;19;19942;-62
2023/12/03 03:26:06;;;;;;;;;;;;;;;4.21;68.93;100389.41;7368445;19;19923;-62
2023/12/03 03:28:31;;;;;;;;;;;;;;;4.22;68.64;100385.09;7364792;19;19911;-63
2023/12/03 03:30:58;;;;;;;;;;;;;;;4.20;68.89;100385.09;7373167;19;19918;-62
2023/12/03 03:33:23;;;;;;;;;;;;;;;4.20;68.92;100381.66;7364452;19;20339;-62
2023/12/03 03:35:49;;;;;;;;;;;;;;;4.20;69.03;100389.41;7365013;19;19950;-62
2023/12/03 03:38:14;;;;;;;;;;;;;;;4.19;68.82;100379.94;7369372;19;19990;-62
2023/12/03 03:40:39;;;;;;;;;;;;;;;4.19;68.90;100374.75;7368796;19;19930;-62
2023/12/03 03:43:04;;;;;;;;;;;;;;;4.18;69.27;100379.06;7367295;19;20310;-62
2023/12/03 03:45:30;;;;;;;;;;;;;;;4.19;69.19;100372.19;7368346;19;19914;-62
2023/12/03 03:47:55;;;;;;;;;;;;;;;4.18;69.28;100371.31;7367326;19;19914;-62
2023/12/03 03:50:20;;;;;;;;;;;;;;;4.20;69.34;100371.31;7367768;19;20351;-61
2023/12/03 03:52:46;;;;;;;;;;;;;;;4.19;69.26;100365.28;7362142;19;19923;-63
2023/12/03 03:55:11;;;;;;;;;;;;;;;4.19;69.14;100356.69;7368386;19;19929;-62
2023/12/03 03:57:36;;;;;;;;;;;;;;;4.19;69.50;100365.28;7362853;19;19983;-62
2023/12/03 04:00:02;;;;;;;;;;;;;;;4.20;69.44;100361.84;7364202;19;19929;-61
2023/12/03 04:02:27;;;;;;;;;;;;;;;4.20;69.37;100354.06;7363783;19;19948;-62
2023/12/03 04:04:52;;;;;;;;;;;;;;;4.21;69.27;100353.25;7367465;19;19951;-62
2023/12/03 04:07:18;;;;;;;;;;;;;;;4.22;69.16;100354.09;7369376;19;20339;-62
2023/12/03 04:09:44;;;;;;;;;;;;;;;4.22;69.57;100352.38;7374450;19;20404;-62
2023/12/03 04:12:09;;;;;;;;;;;;;;;4.22;69.42;100349.78;7365000;19;19918;-62
2023/12/03 04:14:35;;;;;;;;;;;;;;;4.22;69.58;100344.63;7368128;19;19954;-62
2023/12/03 04:17:00;;;;;;;;;;;;;;;4.23;69.57;100345.47;7356667;19;20259;-63
2023/12/03 04:19:25;;;;;;;;;;;;;;;4.23;69.37;100348.91;7367330;19;19918;-62
2023/12/03 04:21:51;;;;;;;;;;;;;;;4.25;69.39;100343.72;7359935;19;19914;-62
2023/12/03 04:24:16;;;;;;;;;;;;;;;4.24;69.54;100342.88;7369084;19;19958;-63
2023/12/03 04:26:42;;;;;;;;;;;;;;;4.24;69.70;100348.03;7338984;19;19926;-62
2023/12/03 04:29:07;;;;;;;;;;;;;;;4.25;69.62;100347.16;7359585;19;20220;-61
2023/12/03 04:31:33;;;;;;;;;;;;;;;4.26;69.71;100345.44;7362441;19;20303;-61
2023/12/03 04:33:58;;;;;;;;;;;;;;;4.25;69.71;100339.41;7367245;19;20631;-61
2023/12/03 04:36:25;;;;;;;;;;;;;;;4.26;69.49;100351.50;7374724;19;19974;-63
2023/12/03 04:38:51;;;;;;;;;;;;;;;4.27;69.56;100353.22;7362724;19;19918;-62
2023/12/03 04:41:16;;;;;;;;;;;;;;;4.27;69.84;100353.22;7367949;19;19914;-62
2023/12/03 04:43:41;;;;;;;;;;;;;;;4.28;69.52;100354.94;7367326;19;19922;-62
2023/12/03 04:46:07;;;;;;;;;;;;;;;4.29;69.47;100356.66;7365236;19;19915;-62
2023/12/03 04:48:32;;;;;;;;;;;;;;;4.30;69.36;100358.34;7368217;19;19911;-62
2023/12/03 04:50:57;;;;;;;;;;;;;;;4.30;69.37;100350.59;7363954;19;19965;-62
2023/12/03 04:53:23;;;;;;;;;;;;;;;4.30;69.80;100348.03;7359138;19;19923;-62
2023/12/03 04:55:48;;;;;;;;;;;;;;;4.29;69.60;100346.31;7366854;19;19939;-62
2023/12/03 04:58:13;;;;;;;;;;;;;;;4.30;69.68;100345.44;7361602;19;19915;-62
2023/12/03 05:00:39;;;;;;;;;;;;;;;4.30;69.73;100342.00;7370322;19;19917;-62
2023/12/03 05:03:04;;;;;;;;;;;;;;;4.29;69.19;100346.31;7367174;19;20275;-62
2023/12/03 05:05:29;;;;;;;;;;;;;;;4.28;69.50;100331.66;7361101;19;19922;-62
2023/12/03 05:07:54;;;;;;;;;;;;;;;4.28;69.66;100334.25;7367359;19;19967;-62
2023/12/03 05:10:20;;;;;;;;;;;;;;;4.26;69.70;100330.81;7365877;19;19925;-62
2023/12/03 05:12:45;;;;;;;;;;;;;;;4.26;69.65;100324.78;7365614;19;19918;-62
2023/12/03 05:15:10;;;;;;;;;;;;;;;4.24;69.92;100327.38;7365878;19;19915;-62
2023/12/03 05:17:36;;;;;;;;;;;;;;;4.25;69.87;100329.09;7369218;19;19918;-62
2023/12/03 05:20:01;;;;;;;;;;;;;;;4.24;69.81;100327.38;7363371;19;19915;-62
2023/12/03 05:22:26;;;;;;;;;;;;;;;4.24;69.64;100326.50;7362464;19;19943;-62
2023/12/03 05:24:51;;;;;;;;;;;;;;;4.24;69.68;100326.50;7360889;19;19919;-62
2023/12/03 05:27:17;;;;;;;;;;;;;;;4.23;69.63;100325.66;7366042;19;20620;-62
2023/12/03 05:29:45;;;;;;;;;;;;;;;4.23;69.61;100328.25;7371485;19;19917;-62
2023/12/03 05:32:10;;;;;;;;;;;;;;;4.23;69.68;100325.66;7369817;19;19935;-62
2023/12/03 05:34:36;;;;;;;;;;;;;;;4.23;69.73;100324.78;7359655;19;19915;-62
2023/12/03 05:37:01;;;;;;;;;;;;;;;4.21;69.89;100324.81;7368057;19;19949;-62
2023/12/03 05:39:26;;;;;;;;;;;;;;;4.22;69.94;100318.78;7360382;19;19915;-62
2023/12/03 05:41:52;;;;;;;;;;;;;;;4.22;69.86;100318.78;7349727;19;19941;-63
2023/12/03 05:44:17;;;;;;;;;;;;;;;4.21;69.78;100322.22;7361868;19;19911;-62
2023/12/03 05:46:42;;;;;;;;;;;;;;;4.22;69.79;100323.94;7365691;19;20645;-62
2023/12/03 05:49:08;;;;;;;;;;;;;;;4.22;69.75;100321.34;7363158;19;20000;-62
2023/12/03 05:51:34;;;;;;;;;;;;;;;4.22;70.01;100323.94;7362898;19;19918;-63
2023/12/03 05:53:59;;;;;;;;;;;;;;;4.24;70.00;100336.84;7365637;19;19918;-62
2023/12/03 05:56:24;;;;;;;;;;;;;;;4.23;69.99;100335.13;7364905;19;19914;-62
2023/12/03 05:58:50;;;;;;;;;;;;;;;4.22;69.92;100339.44;7361091;19;19978;-62
2023/12/03 06:01:25;;;;;;;;;;;;;;;4.23;69.70;100336.00;7365708;19;19952;-62
2023/12/03 06:03:50;;;;;;;;;;;;;;;4.22;69.73;100334.28;7361755;19;20336;-62
2023/12/03 06:06:16;;;;;;;;;;;;;;;4.22;69.86;100329.09;7362903;19;19919;-62
2023/12/03 06:08:41;;;;;;;;;;;;;;;4.22;69.99;100325.66;7363729;19;19982;-62
2023/12/03 06:11:07;;;;;;;;;;;;;;;4.22;70.03;100323.09;7361255;19;20501;-62
2023/12/03 06:13:32;;;;;;;;;;;;;;;4.20;69.67;100320.47;7355780;19;20649;-63
2023/12/03 06:15:57;;;;;;;;;;;;;;;4.20;70.05;100330.81;7364191;19;19930;-61
2023/12/03 06:18:22;;;;;;;;;;;;;;;4.18;69.58;100322.22;7361566;19;19992;-62
2023/12/03 06:20:48;;;;;;;;;;;;;;;4.18;69.93;100327.41;7361116;19;19935;-61
2023/12/03 06:23:13;;;;;;;;;;;;;;;4.18;69.83;100322.22;7363433;19;20315;-62
2023/12/03 06:25:38;;;;;;;;;;;;;;;4.18;69.77;100322.22;7354034;19;19926;-62
2023/12/03 06:28:03;;;;;;;;;;;;;;;4.18;69.55;100316.19;7359800;19;19919;-62
2023/12/03 06:30:29;;;;;;;;;;;;;;;4.16;69.98;100318.78;7366657;19;19944;-62
2023/12/03 06:32:55;;;;;;;;;;;;;;;4.16;70.04;100321.38;7365412;19;19927;-62
2023/12/03 06:35:20;;;;;;;;;;;;;;;4.14;69.88;100315.34;7364405;19;19929;-61
2023/12/03 06:37:45;;;;;;;;;;;;;;;4.14;69.88;100315.34;7354331;19;19942;-62
2023/12/03 06:40:11;;;;;;;;;;;;;;;4.13;69.92;100319.66;7365092;19;19946;-61
2023/12/03 06:42:36;;;;;;;;;;;;;;;4.13;70.01;100316.22;7357602;19;19925;-62
2023/12/03 06:45:01;;;;;;;;;;;;;;;4.14;70.02;100317.91;7362112;19;19971;-61
2023/12/03 06:47:26;;;;;;;;;;;;;;;4.14;70.23;100315.34;7370445;19;19919;-62
2023/12/03 06:49:52;;;;;;;;;;;;;;;4.14;69.83;100311.03;7371366;19;19922;-62
2023/12/03 06:52:17;;;;;;;;;;;;;;;4.15;69.81;100317.06;7369314;19;20347;-62
2023/12/03 06:54:42;;;;;;;;;;;;;;;4.16;70.07;100318.78;7372279;19;19915;-62
2023/12/03 06:57:08;;;;;;;;;;;;;;;4.16;69.72;100313.63;7365684;19;19926;-62
2023/12/03 06:59:33;;;;;;;;;;;;;;;4.16;69.90;100298.97;7365274;19;20380;-62
2023/12/03 07:01:58;;;;;;;;;;;;;;;4.16;70.21;100298.13;7366616;19;19915;-62
2023/12/03 07:04:23;;;;;;;;;;;;;;;4.16;70.35;100291.22;7372952;19;19918;-62
2023/12/03 07:06:49;;;;;;;;;;;;;;;4.16;70.08;100303.28;7363214;19;19926;-62
2023/12/03 07:09:14;;;;;;;;;;;;;;;4.16;70.13;100292.97;7350605;19;19919;-63
2023/12/03 07:11:39;;;;;;;;;;;;;;;4.16;70.32;100292.97;7355462;19;20398;-62
2023/12/03 07:14:06;;;;;;;;;;;;;;;4.15;70.01;100291.22;7371972;19;19918;-62
2023/12/03 07:16:31;;;;;;;;;;;;;;;4.14;70.39;100294.66;7348894;19;19911;-62
2023/12/03 07:18:57;;;;;;;;;;;;;;;4.14;70.18;100302.41;7374985;19;19933;-62
2023/12/03 07:21:22;;;;;;;;;;;;;;;4.13;70.33;100303.28;7364218;19;19922;-62
2023/12/03 07:23:48;;;;;;;;;;;;;;;4.13;70.19;100292.94;7368448;19;19923;-62
2023/12/03 07:26:13;;;;;;;;;;;;;;;4.12;70.12;100283.47;7364810;19;19935;-63
2023/12/03 07:28:38;;;;;;;;;;;;;;;4.10;70.28;100287.78;7360418;19;19987;-62
2023/12/03 07:31:04;;;;;;;;;;;;;;;4.10;70.14;100287.78;7366708;19;19922;-62
2023/12/03 07:33:29;;;;;;;;;;;;;;;4.09;70.05;100297.25;7370020;19;19926;-62
2023/12/03 07:35:54;;;;;;;;;;;;;;;4.10;70.34;100305.88;7368802;19;19923;-62
2023/12/03 07:38:20;;;;;;;;;;;;;;;4.08;70.27;100305.88;7361241;19;20331;-62
2023/12/03 07:40:45;;;;;;;;;;;;;;;4.09;70.06;100299.00;7365267;19;19934;-62
2023/12/03 07:43:10;;;;;;;;;;;;;;;4.08;69.89;100300.72;7368740;19;19926;-62
2023/12/03 07:45:36;;;;;;;;;;;;;;;4.08;70.21;100299.84;7354071;19;19966;-62
2023/12/03 07:48:01;;;;;;;;;;;;;;;4.08;70.40;100297.28;7377658;19;20259;-62
2023/12/03 07:50:26;;;;;;;;;;;;;;;4.08;70.00;100290.38;7371047;19;19915;-62
2023/12/03 07:52:52;;;;;;;;;;;;;;;4.09;70.12;100296.41;7366653;19;19930;-62
2023/12/03 07:55:17;;;;;;;;;;;;;;;4.09;70.37;100288.66;7362662;19;19923;-62
2023/12/03 07:57:42;;;;;;;;;;;;;;;4.09;70.06;100292.09;7362519;19;20882;-62
2023/12/03 08:00:08;;;;;;;;;;;;;;;4.10;70.54;100298.97;7364721;19;19918;-62
2023/12/03 08:02:33;;;;;;;;;;;;;;;4.11;69.99;100305.03;7371113;19;19928;-61
2023/12/03 08:04:58;;;;;;;;;;;;;;;4.11;70.08;100300.72;7360553;19;19914;-63
2023/12/03 08:07:23;;;;;;;;;;;;;;;4.12;70.03;100301.56;7366547;19;19926;-61
2023/12/03 08:09:50;;;;;;;;;;;;;;;4.13;70.39;100298.13;7367129;19;19978;-62
2023/12/03 08:12:15;;;;;;;;;;;;;;;4.14;70.28;100299.84;7363196;19;19923;-62
2023/12/03 08:14:40;;;;;;;;;;;;;;;4.14;69.95;100295.53;7366838;19;19915;-62
2023/12/03 08:17:11;;;;;;;;;;;;;;;4.16;70.15;100292.97;7370537;19;19918;-62
2023/12/03 08:19:37;;;;;;;;;;;;;;;4.16;70.22;100290.38;7370471;19;19922;-62
2023/12/03 08:22:02;;;;;;;;;;;;;;;4.17;70.13;100294.66;7357817;19;19910;-62
2023/12/03 08:24:27;;;;;;;;;;;;;;;4.17;70.37;100289.50;7365993;19;19946;-62
2023/12/03 08:26:52;;;;;;;;;;;;;;;4.18;70.23;100296.38;7366041;19;20783;-62
2023/12/03 08:29:18;;;;;;;;;;;;;;;4.18;70.40;100293.78;7365151;19;19934;-62
2023/12/03 08:31:43;;;;;;;;;;;;;;;4.18;70.16;100296.38;7372832;19;19922;-62
2023/12/03 08:34:08;;;;;;;;;;;;;;;4.20;70.25;100293.78;7366452;19;19946;-62
2023/12/03 08:36:34;;;;;;;;;;;;;;;4.19;70.40;100292.94;7363255;19;19943;-61
2023/12/03 08:39:02;;;;;;;;;;;;;;;4.18;70.11;100293.78;7364819;19;19918;-62
2023/12/03 08:41:27;;;;;;;;;;;;;;;4.19;70.36;100292.94;7359005;19;19922;-61
2023/12/03 08:43:52;;;;;;;;;;;;;;;4.19;70.40;100292.94;7366076;19;20602;-61
2023/12/03 08:46:20;;;;;;;;;;;;;;;4.20;70.18;100296.38;7364315;19;19922;-62
2023/12/03 08:48:45;;;;;;;;;;;;;;;4.20;70.31;100298.94;7361221;19;20734;-62
2023/12/03 08:51:10;;;;;;;;;;;;;;;4.20;70.25;100294.63;7363376;19;20034;-62
2023/12/03 08:53:36;;;;;;;;;;;;;;;4.19;70.14;100292.94;7358484;19;19922;-62
2023/12/03 08:56:01;;;;;;;;;;;;;;;4.19;70.19;100297.25;7364629;19;19931;-61
2023/12/03 08:58:26;;;;;;;;;;;;;;;4.17;69.93;100294.66;7358069;19;19922;-62
2023/12/03 09:00:52;;;;;;;;;;;;;;;4.09;69.97;100297.25;7358891;19;19990;-62
2023/12/03 09:03:17;;;;;;;;;;;;;;;4.14;70.23;100305.00;7364991;19;19925;-62
2023/12/03 09:05:43;;;;;;;;;;;;;;;4.12;70.27;100301.56;7361646;19;19915;-62
2023/12/03 09:08:08;;;;;;;;;;;;;;;4.10;69.90;100305.88;7361868;19;19915;-62
2023/12/03 09:10:33;;;;;;;;;;;;;;;4.07;70.35;100304.16;7362306;19;19923;-62
2023/12/03 09:12:58;;;;;;;;;;;;;;;4.04;70.25;100299.00;7362653;19;20351;-62
2023/12/03 09:15:24;;;;;;;;;;;;;;;4.02;70.26;100295.56;7364503;19;19949;-62
2023/12/03 09:17:49;;;;;;;;;;;;;;;3.99;70.28;100294.72;7362112;19;19956;-62
2023/12/03 09:20:14;;;;;;;;;;;;;;;3.96;70.17;100289.56;7363795;19;19929;-62
2023/12/03 09:22:39;;;;;;;;;;;;;;;3.92;70.16;100293.00;7355193;19;19928;-62
2023/12/03 09:25:06;;;;;;;;;;;;;;;3.89;70.01;100294.72;7364625;19;19919;-62
2023/12/03 09:27:33;;;;;;;;;;;;;;;3.86;70.32;100289.59;7367846;19;19915;-62
2023/12/03 09:29:58;;;;;;;;;;;;;;;3.83;70.49;100289.56;7372877;19;20448;-62
2023/12/03 09:32:23;;;;;;;;;;;;;;;3.80;70.38;100289.59;7363149;19;19947;-62
2023/12/03 09:34:49;;;;;;;;;;;;;;;3.78;70.02;100290.44;7360980;19;19926;-62
2023/12/03 09:37:14;;;;;;;;;;;;;;;3.75;70.17;100291.34;7372632;19;20556;-62
2023/12/03 09:39:39;;;;;;;;;;;;;;;3.73;70.37;100293.03;7364374;19;19940;-62
2023/12/03 09:42:07;;;;;;;;;;;;;;;3.71;70.46;100289.59;7354853;19;19911;-62
2023/12/03 09:44:35;;;;;;;;;;;;;;;3.70;70.18;100292.16;7358381;19;20059;-62
2023/12/03 09:47:02;;;;;;;;;;;;;;;3.68;70.18;100292.19;7363125;19;19934;-62
2023/12/03 09:49:28;;;;;;;;;;;;;;;3.69;70.52;100291.31;7369154;19;19931;-62
2023/12/03 09:51:56;;;;;;;;;;;;;;;3.70;70.70;100295.63;7375822;19;19930;-62
2023/12/03 09:54:22;;;;;;;;;;;;;;;3.71;70.54;100289.59;7372666;19;20390;-62
2023/12/03 09:56:48;;;;;;;;;;;;;;;3.74;70.42;100289.59;7362748;19;19935;-62
2023/12/03 09:59:14;;;;;;;;;;;;;;;3.76;70.77;100279.28;7363615;19;19994;-62
2023/12/03 10:01:40;;;;;;;;;;;;;;;3.78;70.79;100275.81;7368011;19;19926;-62
2023/12/03 10:04:06;;;;;;;;;;;;;;;3.82;70.62;100287.84;7361898;19;19911;-62
2023/12/03 10:06:33;;;;;;;;;;;;;;;3.83;70.51;100287.00;7362798;19;19922;-62
2023/12/03 10:08:59;;;;;;;;;;;;;;;3.84;70.35;100280.09;7360606;19;20267;-62
2023/12/03 10:11:25;;;;;;;;;;;;;;;3.67;70.56;100262.06;7361456;19;20006;-62
2023/12/03 10:13:52;;;;;;;;;;;;;;;3.86;70.50;100292.16;7359898;19;19994;-62
2023/12/03 10:16:20;;;;;;;;;;;;;;;3.88;70.40;100292.16;7357581;19;19926;-62
2023/12/03 10:18:45;;;;;;;;;;;;;;;3.88;70.58;100289.56;7362743;19;19922;-62
2023/12/03 10:21:10;;;;;;;;;;;;;;;3.88;70.55;100287.84;7352914;19;19995;-62
2023/12/03 10:23:36;;;;;;;;;;;;;;;3.89;70.27;100289.56;7359253;19;19918;-63
2023/12/03 10:26:15;;;;;;;;;;;;;;;3.90;70.23;100291.31;7365776;19;19921;-63
2023/12/03 10:28:40;;;;;;;;;;;;;;;3.90;70.64;100296.47;7365621;19;20620;-61
2023/12/03 10:31:15;;;;;;;;;;;;;;;3.91;70.56;100297.31;7361309;19;19982;-62
2023/12/03 10:33:44;;;;;;;;;;;;;;;3.92;70.45;100298.19;7362838;19;19926;-62
2023/12/03 10:36:09;;;;;;;;;;;;;;;3.94;70.33;100301.59;7356917;19;19921;-63
2023/12/03 10:38:36;;;;;;;;;;;;;;;3.94;70.69;100299.88;7361787;19;19919;-62
2023/12/03 10:41:03;;;;;;;;;;;;;;;3.96;70.44;100295.59;7359935;19;19922;-62
2023/12/03 10:43:28;;;;;;;;;;;;;;;3.97;70.47;100294.72;7363031;19;19922;-62
2023/12/03 10:45:54;;;;;;;;;;;;;;;3.99;70.68;100294.72;7356177;19;19918;-62
2023/12/03 10:48:20;;;;;;;;;;;;;;;4.02;70.32;100294.72;7360490;19;19917;-62
2023/12/03 10:50:45;;;;;;;;;;;;;;;4.04;70.71;100293.81;7359556;19;19923;-62
2023/12/03 10:53:14;;;;;;;;;;;;;;;4.07;70.49;100298.16;7361465;19;19911;-62
2023/12/03 10:55:39;;;;;;;;;;;;;;;4.10;70.49;100282.59;7360173;19;20632;-62
2023/12/03 10:58:05;;;;;;;;;;;;;;;4.16;70.63;100285.19;7361897;19;20284;-62
2023/12/03 11:00:37;;;;;;;;;;;;;;;4.22;70.77;100280.00;7367495;19;19919;-62
2023/12/03 11:03:26;;;;;;;;;;;;;;;4.33;70.63;100279.97;7362848;19;20016;-62
2023/12/03 11:05:52;;;;;;;;;;;;;;;4.41;70.84;100273.91;7360084;19;19926;-61
2023/12/03 11:08:20;;;;;;;;;;;;;;;4.48;70.66;100273.88;7363520;19;19915;-62
2023/12/03 11:10:45;;;;;;;;;;;;;;;4.56;70.52;100269.50;7361008;19;20527;-62
2023/12/03 11:13:11;;;;;;;;;;;;;;;4.67;70.75;100270.31;7361080;19;19938;-62
2023/12/03 11:15:37;;;;;;;;;;;;;;;4.85;71.19;100275.38;7352654;19;19948;-62
2023/12/03 11:18:04;;;;;;;;;;;;;;;5.12;71.69;100273.47;7361686;19;19915;-62
2023/12/03 11:20:32;;;;;;;;;;;;;;;5.47;72.09;100270.59;7354479;19;20377;-62
2023/12/03 11:23:20;;;;;;;;;;;;;;;5.87;71.91;100265.03;7355457;19;19923;-62
2023/12/03 11:25:53;;;;;;;;;;;;;;;6.37;71.82;100261.88;7346357;19;19949;-63
2023/12/03 11:28:18;;;;;;;;;;;;;;;6.82;72.17;100258.69;7352227;19;19931;-62
2023/12/03 11:30:44;;;;;;;;;;;;;;;7.21;71.48;100254.66;7368110;19;19935;-63
2023/12/03 11:33:10;;;;;;;;;;;;;;;7.51;70.79;100251.53;7367620;19;19906;-62
2023/12/03 11:35:35;;;;;;;;;;;;;;;7.79;70.65;100243.22;7372426;19;19919;-62
2023/12/03 11:38:01;;;;;;;;;;;;;;;8.04;70.34;100241.88;7364899;19;20393;-62
2023/12/03 11:40:33;;;;;;;;;;;;;;;8.32;70.13;100236.97;7366820;19;19941;-62
2023/12/03 11:42:58;;;;;;;;;;;;;;;8.66;70.14;100235.41;7365140;19;19926;-62
2023/12/03 11:45:27;;;;;;;;;;;;;;;9.01;70.09;100242.41;7363902;19;19914;-63
2023/12/03 11:48:05;;;;;;;;;;;;;;;9.36;69.93;100238.97;7369965;19;20444;-62
2023/12/03 11:50:31;;;;;;;;;;;;;;;9.73;69.54;100238.00;7367694;19;19918;-62
2023/12/03 11:52:56;;;;;;;;;;;;;;;10.10;69.68;100233.50;7367791;19;19961;-62
2023/12/03 11:55:22;;;;;;;;;;;;;;;10.45;68.81;100223.84;7367274;19;20530;-62
2023/12/03 11:57:47;;;;;;;;;;;;;;;10.82;68.72;100227.94;7373755;19;19919;-62
2023/12/03 12:00:13;;;;;;;;;;;;;;;11.15;68.46;100221.63;7366615;19;19929;-62
2023/12/03 12:02:38;;;;;;;;;;;;;;;11.51;68.46;100223.06;7360834;19;19986;-62
2023/12/03 12:05:04;;;;;;;;;;;;;;;11.84;68.27;100214.06;7359243;19;20454;-62
2023/12/03 12:07:29;;;;;;;;;;;;;;;12.15;67.38;100208.56;7369382;19;19952;-62
2023/12/03 12:09:54;;;;;;;;;;;;;;;12.43;66.85;100212.78;7366314;19;19928;-63
2023/12/03 12:12:20;;;;;;;;;;;;;;;12.64;66.43;100201.47;7367094;19;19918;-63
2023/12/03 12:14:45;;;;;;;;;;;;;;;12.80;65.55;100203.50;7368016;19;19930;-63
2023/12/03 12:17:11;;;;;;;;;;;;;;;12.89;65.33;100198.75;7362808;19;19948;-63
2023/12/03 12:19:44;;;;;;;;;;;;;;;12.92;64.83;100210.84;7366186;19;19923;-63
2023/12/03 12:22:09;;;;;;;;;;;;;;;12.88;64.46;100197.03;7362034;19;19929;-62
2023/12/03 12:24:34;;;;;;;;;;;;;;;12.83;64.29;100203.38;7362410;19;19926;-62
2023/12/03 12:26:59;;;;;;;;;;;;;;;12.75;64.31;100198.44;7365732;19;19919;-62
2023/12/03 12:29:25;;;;;;;;;;;;;;;12.68;64.67;100194.34;7363539;19;19988;-63
2023/12/03 12:31:50;;;;;;;;;;;;;;;12.59;64.79;100199.94;7364511;19;20493;-62
2023/12/03 12:34:15;;;;;;;;;;;;;;;12.52;64.62;100198.47;7356281;19;19915;-62
2023/12/03 12:36:43;;;;;;;;;;;;;;;12.47;65.47;100196.06;7374588;19;19926;-62
2023/12/03 12:39:23;;;;;;;;;;;;;;;12.41;64.96;100196.25;7329758;19;20102;-63